createdAt,value
2022-08-25T00:00:45.902Z,20.20
2022-08-25T00:05:49.089Z,20.10
2022-08-25T00:10:59.835Z,20.10
2022-08-25T00:16:06.836Z,20.00
2022-08-25T00:21:09.905Z,20.00
2022-08-25T00:26:15.832Z,19.90
2022-08-25T00:31:23.443Z,19.90
2022-08-25T00:36:41.489Z,19.90
2022-08-25T00:41:44.367Z,19.90
2022-08-25T00:46:55.430Z,20.00
2022-08-25T00:52:18.854Z,20.00
2022-08-25T00:57:34.550Z,20.00
2022-08-25T01:02:38.827Z,20.10
2022-08-25T01:07:43.525Z,20.10
2022-08-25T01:12:50.116Z,20.20
2022-08-25T01:17:57.720Z,20.20
2022-08-25T01:23:03.117Z,20.20
2022-08-25T01:28:07.271Z,20.20
2022-08-25T01:33:11.885Z,20.20
2022-08-25T01:38:15.520Z,20.20
2022-08-25T01:43:39.326Z,20.10
2022-08-25T01:48:42.173Z,20.00
2022-08-25T01:53:45.215Z,19.90
2022-08-25T01:58:50.062Z,19.90
2022-08-25T02:03:56.052Z,19.90
2022-08-25T02:09:07.244Z,19.90
2022-08-25T02:14:12.030Z,19.80
2022-08-25T02:19:17.278Z,19.70
2022-08-25T02:24:20.950Z,19.60
2022-08-25T02:29:24.011Z,19.60
2022-08-25T02:34:27.599Z,19.60
2022-08-25T02:39:30.518Z,19.50
2022-08-25T02:44:33.685Z,19.50
2022-08-25T02:49:36.522Z,19.50
2022-08-25T02:54:39.387Z,19.50
2022-08-25T02:59:42.319Z,19.60
2022-08-25T03:04:45.412Z,19.60
2022-08-25T03:09:48.783Z,19.60
2022-08-25T03:14:51.755Z,19.50
2022-08-25T03:19:54.627Z,19.60
2022-08-25T03:25:22.149Z,19.50
2022-08-25T03:30:27.994Z,19.50
2022-08-25T03:35:30.927Z,19.50
2022-08-25T03:40:34.288Z,19.50
2022-08-25T03:45:41.811Z,19.50
2022-08-25T03:50:52.152Z,19.50
2022-08-25T03:55:55.016Z,19.40
2022-08-25T04:01:00.558Z,19.40
2022-08-25T04:06:06.654Z,19.40
2022-08-25T04:11:22.549Z,19.40
2022-08-25T04:16:31.326Z,19.40
2022-08-25T04:21:34.917Z,19.40
2022-08-25T04:26:42.705Z,19.40
2022-08-25T04:31:48.708Z,19.50
2022-08-25T04:36:52.602Z,19.50
2022-08-25T04:41:55.677Z,19.60
2022-08-25T04:46:59.979Z,19.70
2022-08-25T04:52:03.348Z,19.70
2022-08-25T04:57:07.224Z,19.80
2022-08-25T05:02:10.403Z,19.90
2022-08-25T05:07:13.442Z,20.00
2022-08-25T05:12:16.678Z,20.20
2022-08-25T05:17:19.618Z,20.40
2022-08-25T05:22:25.427Z,20.40
2022-08-25T05:27:28.565Z,20.60
2022-08-25T05:32:32.036Z,20.70
2022-08-25T05:37:35.304Z,20.80
2022-08-25T05:42:38.796Z,20.90
2022-08-25T05:47:41.598Z,21.00
2022-08-25T05:52:45.680Z,21.10
2022-08-25T05:57:49.034Z,21.30
2022-08-25T06:02:52.054Z,21.40
2022-08-25T06:07:55.643Z,21.50
2022-08-25T06:12:58.624Z,21.70
2022-08-25T06:18:03.468Z,21.80
2022-08-25T06:23:06.578Z,22.00
2022-08-25T06:28:09.551Z,22.10
2022-08-25T06:33:12.463Z,22.40
2022-08-25T06:38:15.303Z,22.60
2022-08-25T06:43:20.253Z,22.80
2022-08-25T06:48:24.023Z,23.00
2022-08-25T06:53:26.937Z,23.20
2022-08-25T06:58:30.218Z,23.40
2022-08-25T07:03:33.101Z,23.60
2022-08-25T07:08:40.346Z,23.80
2022-08-25T07:13:44.163Z,23.90
2022-08-25T07:18:48.675Z,24.10
2022-08-25T07:23:52.329Z,24.20
2022-08-25T07:28:56.335Z,24.30
2022-08-25T07:34:18.165Z,24.50
2022-08-25T07:39:22.295Z,24.60
2022-08-25T07:44:28.076Z,24.90
2022-08-25T07:49:35.997Z,25.10
2022-08-25T07:54:42.832Z,25.20
2022-08-25T07:59:50.319Z,25.40
2022-08-25T08:04:54.284Z,25.60
2022-08-25T08:10:27.926Z,25.70
2022-08-25T08:15:21.472Z,25.90
2022-08-25T08:20:25.831Z,26.00
2022-08-25T08:25:28.781Z,26.20
2022-08-25T08:30:32.195Z,26.30
2022-08-25T08:35:35.166Z,26.40
2022-08-25T08:41:23.225Z,26.50
2022-08-25T08:46:50.631Z,26.60
2022-08-25T08:52:00.627Z,26.70
2022-08-25T08:57:18.870Z,26.90
2022-08-25T09:03:00.462Z,27.00
2022-08-25T09:08:10.498Z,27.20
2022-08-25T09:13:35.836Z,27.30
2022-08-25T09:18:50.908Z,27.30
2022-08-25T09:24:28.588Z,27.40
2022-08-25T09:30:11.619Z,27.60
2022-08-25T09:35:26.569Z,27.70
2022-08-25T09:40:35.717Z,27.90
2022-08-25T09:45:45.143Z,27.90
2022-08-25T09:50:54.492Z,28.10
2022-08-25T09:56:06.020Z,28.30
2022-08-25T10:01:15.920Z,28.50
2022-08-25T10:06:19.071Z,28.60
2022-08-25T10:11:52.709Z,28.70
2022-08-25T10:17:29.605Z,28.70
2022-08-25T10:22:33.046Z,28.90
2022-08-25T10:27:51.025Z,29.00
2022-08-25T10:33:03.681Z,29.20
2022-08-25T10:38:47.778Z,29.40
2022-08-25T10:44:47.827Z,29.70
2022-08-25T10:50:01.533Z,29.90
2022-08-25T10:55:45.345Z,30.00
2022-08-25T11:01:02.155Z,30.00
2022-08-25T11:06:14.654Z,30.00
2022-08-25T11:11:47.144Z,30.10
2022-08-25T11:17:00.602Z,30.30
2022-08-25T11:22:38.676Z,30.50
2022-08-25T11:27:55.418Z,30.70
2022-08-25T11:32:58.537Z,30.80
2022-08-25T11:38:35.624Z,30.90
2022-08-25T11:44:53.199Z,31.00
2022-08-25T11:50:23.641Z,31.10
2022-08-25T11:55:38.881Z,31.30
2022-08-25T12:00:46.080Z,31.40
2022-08-25T12:23:34.779Z,31.80
2022-08-25T12:29:07.563Z,32.80
2022-08-25T12:34:48.550Z,33.00
2022-08-25T12:39:51.598Z,33.30
2022-08-25T12:45:20.765Z,33.60
2022-08-25T12:50:32.140Z,33.60
2022-08-25T12:55:37.524Z,33.60
2022-08-25T13:00:52.490Z,33.60
2022-08-25T13:06:20.435Z,33.40
2022-08-25T13:11:43.352Z,33.30
2022-08-25T13:17:00.371Z,33.10
2022-08-25T13:22:18.601Z,32.80
2022-08-25T13:27:28.328Z,32.70
2022-08-25T13:32:39.684Z,32.60
2022-08-25T13:37:43.831Z,32.50
2022-08-25T13:42:56.148Z,32.50
2022-08-25T13:48:00.425Z,32.40
2022-08-25T13:53:26.467Z,32.30
2022-08-25T13:58:39.282Z,32.20
2022-08-25T14:03:48.815Z,32.20
2022-08-25T14:08:58.461Z,32.20
2022-08-25T14:14:03.968Z,32.10
2022-08-25T14:19:20.177Z,32.10
2022-08-25T14:24:24.312Z,32.20
2022-08-25T14:29:28.732Z,32.30
2022-08-25T14:34:37.749Z,32.40
2022-08-25T14:39:44.081Z,32.50
2022-08-25T14:44:47.607Z,32.50
2022-08-25T14:49:50.565Z,32.60
2022-08-25T14:54:54.389Z,32.70
2022-08-25T14:59:58.621Z,33.00
2022-08-25T15:05:06.477Z,32.90
2022-08-25T15:10:13.561Z,33.00
2022-08-25T15:15:17.532Z,33.10
2022-08-25T15:20:23.559Z,33.20
2022-08-25T15:25:27.969Z,33.30
2022-08-25T15:30:31.384Z,33.30
2022-08-25T15:35:35.442Z,33.30
2022-08-25T15:40:39.807Z,33.30
2022-08-25T15:45:43.035Z,33.10
2022-08-25T15:50:47.378Z,32.90
2022-08-25T15:55:50.495Z,32.70
2022-08-25T16:00:56.948Z,32.40
2022-08-25T16:06:04.642Z,32.20
2022-08-25T16:11:18.867Z,32.10
2022-08-25T16:16:24.948Z,31.90
2022-08-25T16:21:37.123Z,31.60
2022-08-25T16:26:48.584Z,31.20
2022-08-25T16:31:53.302Z,31.00
2022-08-25T16:36:58.491Z,30.70
2022-08-25T16:42:01.885Z,30.50
2022-08-25T16:47:05.298Z,30.30
2022-08-25T16:52:30.437Z,30.10
2022-08-25T16:57:33.764Z,29.80
2022-08-25T17:02:37.442Z,29.60
2022-08-25T17:07:41.568Z,29.40
2022-08-25T17:12:44.351Z,29.20
2022-08-25T17:17:47.259Z,29.00
2022-08-25T17:22:50.971Z,28.90
2022-08-25T17:27:53.707Z,28.70
2022-08-25T17:32:56.657Z,28.50
2022-08-25T17:37:59.840Z,28.40
2022-08-25T17:43:02.992Z,28.30
2022-08-25T17:48:07.419Z,28.10
2022-08-25T17:53:13.364Z,28.00
2022-08-25T17:58:17.444Z,27.90
2022-08-25T18:03:20.458Z,27.70
2022-08-25T18:08:32.034Z,27.50
2022-08-25T18:13:39.110Z,27.30
2022-08-25T18:18:42.325Z,27.10
2022-08-25T18:23:45.802Z,26.90
2022-08-25T18:28:49.606Z,26.70
2022-08-25T18:33:53.010Z,26.60
2022-08-25T18:39:14.593Z,26.60
2022-08-25T18:44:19.907Z,26.50
2022-08-25T18:49:22.848Z,26.50
2022-08-25T18:54:29.562Z,26.50
2022-08-25T18:59:33.231Z,26.40
2022-08-25T19:04:37.102Z,26.40
2022-08-25T19:09:40.495Z,26.30
2022-08-25T19:14:43.335Z,26.20
2022-08-25T19:19:46.184Z,26.10
2022-08-25T19:24:49.332Z,26.10
2022-08-25T19:29:53.033Z,26.10
2022-08-25T19:34:57.008Z,26.00
2022-08-25T19:39:59.910Z,25.90
2022-08-25T19:45:09.203Z,25.90
2022-08-25T19:50:14.985Z,25.80
2022-08-25T19:55:21.071Z,25.70
2022-08-25T20:00:30.024Z,25.70
2022-08-25T20:05:33.856Z,25.70
2022-08-25T20:10:41.825Z,25.70
2022-08-25T20:15:45.131Z,25.60
2022-08-25T20:20:48.109Z,25.40
2022-08-25T20:25:51.667Z,25.30
2022-08-25T20:30:54.861Z,25.20
2022-08-25T20:35:58.330Z,25.10
2022-08-25T20:41:01.579Z,25.00
2022-08-25T20:46:09.284Z,24.80
2022-08-25T20:51:13.241Z,24.80
2022-08-25T20:56:20.332Z,24.60
2022-08-25T21:01:37.855Z,24.60
2022-08-25T21:06:44.746Z,24.50
2022-08-25T21:11:48.540Z,24.40
2022-08-25T21:16:54.310Z,24.30
2022-08-25T21:21:59.546Z,24.20
2022-08-25T21:27:04.621Z,24.10
2022-08-25T21:32:07.455Z,24.10
2022-08-25T21:37:13.444Z,24.10
2022-08-25T21:42:16.411Z,24.20
2022-08-25T21:47:21.173Z,24.30
2022-08-25T21:52:25.273Z,24.30
2022-08-25T21:57:28.586Z,24.30
2022-08-25T22:02:31.421Z,24.30
2022-08-25T22:07:41.619Z,24.10
2022-08-25T22:12:48.253Z,24.00
2022-08-25T22:17:50.997Z,23.90
2022-08-25T22:22:53.801Z,23.90
2022-08-25T22:27:57.217Z,23.80
2022-08-25T22:33:00.076Z,23.70
2022-08-25T22:38:04.787Z,23.70
2022-08-25T22:43:09.310Z,23.60
2022-08-25T22:48:13.850Z,23.50
2022-08-25T22:53:16.686Z,23.40
2022-08-25T22:58:19.388Z,23.30
2022-08-25T23:03:22.351Z,23.30
2022-08-25T23:08:38.880Z,23.30
2022-08-25T23:13:44.313Z,23.20
2022-08-25T23:18:47.332Z,23.10
2022-08-25T23:23:50.203Z,23.10
2022-08-25T23:28:53.588Z,23.10
2022-08-25T23:33:58.640Z,23.00
2022-08-25T23:39:02.187Z,22.90
2022-08-25T23:44:05.813Z,22.80
2022-08-25T23:49:09.396Z,22.70
2022-08-25T23:54:13.461Z,22.70
2022-08-25T23:59:16.591Z,22.60
